createdAt,value
2022-10-19T00:00:21.924Z,98.000000
2022-10-19T00:05:21.944Z,98.000000
2022-10-19T00:10:24.435Z,98.000000
2022-10-19T00:15:21.901Z,98.000000
2022-10-19T00:20:25.043Z,98.000000
2022-10-19T00:25:21.789Z,98.000000
2022-10-19T00:30:21.911Z,98.000000
2022-10-19T00:35:23.226Z,98.000000
2022-10-19T00:40:19.028Z,98.000000
2022-10-19T00:45:22.265Z,98.000000
2022-10-19T00:50:22.300Z,98.000000
2022-10-19T00:55:28.940Z,98.000000
2022-10-19T01:00:22.316Z,98.000000
2022-10-19T01:05:22.604Z,98.000000
2022-10-19T01:10:22.463Z,98.000000
2022-10-19T01:15:22.411Z,98.000000
2022-10-19T01:20:20.244Z,98.000000
2022-10-19T01:25:23.646Z,98.000000
2022-10-19T01:30:22.326Z,98.000000
2022-10-19T01:35:22.732Z,98.000000
2022-10-19T01:40:23.575Z,98.000000
2022-10-19T01:45:24.010Z,98.000000
2022-10-19T01:50:26.869Z,98.000000
2022-10-19T01:55:22.671Z,98.000000
2022-10-19T02:00:22.923Z,98.000000
2022-10-19T02:05:24.150Z,98.000000
2022-10-19T02:10:22.838Z,98.000000
2022-10-19T02:15:22.707Z,98.000000
2022-10-19T02:20:23.104Z,98.000000
2022-10-19T02:25:25.243Z,98.000000
2022-10-19T02:30:22.760Z,98.000000
2022-10-19T02:35:19.371Z,98.000000
2022-10-19T02:40:23.125Z,98.000000
2022-10-19T02:45:25.724Z,98.000000
2022-10-19T02:50:23.862Z,98.000000
2022-10-19T02:55:19.614Z,98.000000
2022-10-19T03:00:23.108Z,98.000000
2022-10-19T03:05:25.945Z,98.000000
2022-10-19T03:10:29.204Z,98.000000
2022-10-19T03:15:20.156Z,98.000000
2022-10-19T03:20:23.684Z,98.000000
2022-10-19T03:25:23.233Z,98.000000
2022-10-19T03:30:23.268Z,98.000000
2022-10-19T03:35:23.867Z,98.727273
2022-10-19T03:40:24.338Z,98.000000
2022-10-19T03:45:23.505Z,98.000000
2022-10-19T03:50:23.560Z,98.000000
2022-10-19T03:55:23.851Z,98.000000
2022-10-19T04:00:24.500Z,98.000000
2022-10-19T04:05:23.488Z,98.000000
2022-10-19T04:10:23.607Z,98.636364
2022-10-19T04:15:23.573Z,99.000000
2022-10-19T04:20:25.514Z,99.000000
2022-10-19T04:25:23.773Z,99.000000
2022-10-19T04:30:19.245Z,99.000000
2022-10-19T04:35:24.243Z,99.000000
2022-10-19T04:40:25.428Z,99.000000
2022-10-19T04:45:28.631Z,99.000000
2022-10-19T04:50:19.569Z,99.000000
2022-10-19T04:55:23.035Z,99.000000
2022-10-19T05:00:26.081Z,99.000000
2022-10-19T05:05:24.003Z,99.000000
2022-10-19T05:10:20.234Z,99.000000
2022-10-19T05:15:23.214Z,99.000000
2022-10-19T05:20:26.439Z,99.000000
2022-10-19T05:25:24.030Z,99.000000
2022-10-19T05:30:20.715Z,99.000000
2022-10-19T05:35:24.645Z,99.000000
2022-10-19T05:40:26.711Z,99.000000
2022-10-19T05:45:24.422Z,99.000000
2022-10-19T05:50:21.184Z,98.454545
2022-10-19T05:55:24.501Z,98.250000
2022-10-19T06:00:27.156Z,98.250000
2022-10-19T06:05:24.526Z,98.090909
2022-10-19T06:10:21.287Z,97.000000
2022-10-19T06:15:36.918Z,95.090909
2022-10-19T06:20:24.433Z,87.000000
2022-10-19T06:25:20.381Z,81.090909
2022-10-19T06:30:24.542Z,80.000000
2022-10-19T06:35:25.652Z,79.000000
2022-10-19T06:40:29.096Z,78.100000
2022-10-19T06:45:19.664Z,75.363636
2022-10-19T06:50:24.917Z,74.666667
2022-10-19T06:55:25.698Z,74.454545
2022-10-19T07:00:24.886Z,73.100000
2022-10-19T07:05:19.760Z,71.909091
2022-10-19T07:10:23.048Z,71.750000
2022-10-19T07:15:26.104Z,71.166667
2022-10-19T07:20:29.510Z,70.300000
2022-10-19T07:25:20.235Z,71.000000
2022-10-19T07:30:25.187Z,70.375000
2022-10-19T07:35:26.748Z,69.111111
2022-10-19T07:40:25.289Z,69.416667
2022-10-19T07:45:20.767Z,70.100000
2022-10-19T07:50:25.260Z,72.400000
2022-10-19T07:55:27.008Z,70.076923
2022-10-19T08:00:30.192Z,68.500000
2022-10-19T08:05:21.168Z,67.636364
2022-10-19T08:10:25.314Z,67.272727
2022-10-19T08:15:27.407Z,70.083333
2022-10-19T08:20:25.218Z,68.333333
2022-10-19T08:25:21.842Z,68.000000
2022-10-19T08:30:25.313Z,66.800000
2022-10-19T08:35:28.084Z,71.583333
2022-10-19T08:40:25.684Z,61.000000
2022-10-19T08:45:22.267Z,58.000000
2022-10-19T08:50:25.332Z,59.444444
2022-10-19T08:55:28.381Z,58.142857
2022-10-19T09:00:19.304Z,56.909091
2022-10-19T09:05:22.295Z,56.454545
2022-10-19T09:10:25.772Z,54.555556
2022-10-19T09:15:28.633Z,54.181818
2022-10-19T09:20:20.106Z,51.500000
2022-10-19T09:25:23.386Z,50.000000
2022-10-19T09:30:26.282Z,50.000000
2022-10-19T09:35:29.755Z,49.666667
2022-10-19T09:40:20.665Z,47.000000
2022-10-19T09:45:25.836Z,44.900000
2022-10-19T09:50:27.140Z,45.111111
2022-10-19T09:55:26.131Z,45.083333
2022-10-19T10:00:20.779Z,43.636364
2022-10-19T10:05:25.800Z,44.416667
2022-10-19T10:10:29.753Z,42.625000
2022-10-19T10:15:26.148Z,44.727273
2022-10-19T10:20:21.259Z,44.363636
2022-10-19T10:25:24.534Z,43.153846
2022-10-19T10:30:27.907Z,48.500000
2022-10-19T10:35:26.339Z,51.166667
2022-10-19T10:40:23.657Z,64.818182
2022-10-19T10:45:24.781Z,51.545455
2022-10-19T10:50:28.271Z,51.300000
2022-10-19T10:55:18.994Z,57.272727
2022-10-19T11:00:22.226Z,46.272727
2022-10-19T11:05:26.471Z,38.400000
2022-10-19T11:10:28.434Z,36.714286
2022-10-19T11:15:19.650Z,36.090909
2022-10-19T11:20:22.879Z,34.600000
2022-10-19T11:25:26.458Z,39.818182
2022-10-19T11:30:28.855Z,54.600000
2022-10-19T11:35:19.871Z,56.384615
2022-10-19T11:40:22.975Z,56.545455
2022-10-19T11:45:26.392Z,56.222222
2022-10-19T11:50:31.923Z,58.000000
2022-10-19T11:55:20.217Z,58.272727
2022-10-19T12:00:38.703Z,57.250000
2022-10-19T12:05:26.551Z,61.900000
2022-10-19T12:10:26.324Z,62.300000
2022-10-19T12:15:20.707Z,58.076923
2022-10-19T12:20:26.234Z,60.666667
2022-10-19T12:25:27.575Z,59.583333
2022-10-19T12:30:26.283Z,59.000000
2022-10-19T12:35:21.450Z,57.307692
2022-10-19T12:40:26.700Z,58.363636
2022-10-19T12:45:27.983Z,58.111111
2022-10-19T12:50:26.406Z,57.777778
2022-10-19T12:55:21.877Z,61.000000
2022-10-19T13:00:26.418Z,60.090909
2022-10-19T13:05:28.111Z,58.666667
2022-10-19T13:10:19.364Z,62.000000
2022-10-19T13:15:22.247Z,60.250000
2022-10-19T13:20:26.296Z,58.800000
2022-10-19T13:25:28.973Z,60.100000
2022-10-19T13:30:20.066Z,57.727273
2022-10-19T13:35:22.961Z,59.384615
2022-10-19T13:40:26.636Z,62.250000
2022-10-19T13:45:26.251Z,59.900000
2022-10-19T13:50:20.283Z,56.090909
2022-10-19T13:55:26.250Z,48.750000
2022-10-19T14:00:26.483Z,44.600000
2022-10-19T14:05:29.866Z,50.538462
2022-10-19T14:10:25.167Z,42.500000
2022-10-19T14:15:23.743Z,43.000000
2022-10-19T14:20:27.432Z,44.000000
2022-10-19T14:25:26.246Z,45.200000
2022-10-19T14:30:21.740Z,46.000000
2022-10-19T14:35:26.514Z,46.555556
2022-10-19T14:40:28.218Z,46.666667
2022-10-19T14:45:26.249Z,46.818182
2022-10-19T14:50:21.849Z,47.272727
2022-10-19T14:55:26.563Z,48.333333
2022-10-19T15:00:28.166Z,48.300000
2022-10-19T15:05:19.305Z,49.083333
2022-10-19T15:10:22.339Z,49.700000
2022-10-19T15:15:26.256Z,51.454545
2022-10-19T15:20:28.823Z,52.500000
2022-10-19T15:25:19.807Z,53.363636
2022-10-19T15:30:22.943Z,54.000000
2022-10-19T15:35:26.860Z,54.000000
2022-10-19T15:40:29.484Z,54.090909
2022-10-19T15:45:20.286Z,55.000000
2022-10-19T15:50:23.414Z,55.000000
2022-10-19T15:55:26.783Z,55.000000
2022-10-19T16:00:29.584Z,55.000000
2022-10-19T16:05:20.894Z,55.000000
2022-10-19T16:10:26.684Z,54.500000
2022-10-19T16:15:27.090Z,54.800000
2022-10-19T16:20:26.890Z,55.000000
2022-10-19T16:25:21.585Z,55.666667
2022-10-19T16:30:24.519Z,56.111111
2022-10-19T16:35:27.743Z,57.000000
2022-10-19T16:40:27.287Z,57.300000
2022-10-19T16:45:21.710Z,58.000000
2022-10-19T16:50:27.101Z,58.090909
2022-10-19T16:55:28.009Z,59.000000
2022-10-19T17:00:19.106Z,59.900000
2022-10-19T17:05:22.204Z,60.090909
2022-10-19T17:10:27.286Z,60.818182
2022-10-19T17:15:42.537Z,61.000000
2022-10-19T17:20:19.871Z,61.777778
2022-10-19T17:25:22.766Z,62.555556
2022-10-19T17:30:26.243Z,63.888889
2022-10-19T17:35:29.483Z,64.600000
2022-10-19T17:40:20.445Z,65.000000
2022-10-19T17:45:23.452Z,65.000000
2022-10-19T17:50:27.598Z,65.000000
2022-10-19T17:55:29.724Z,65.000000
2022-10-19T18:00:20.720Z,65.200000
2022-10-19T18:05:24.324Z,65.900000
2022-10-19T18:10:27.579Z,66.125000
2022-10-19T18:15:30.094Z,67.000000
2022-10-19T18:20:21.495Z,67.272727
2022-10-19T18:25:42.160Z,68.000000
2022-10-19T18:30:27.770Z,68.000000
2022-10-19T18:35:30.688Z,68.363636
2022-10-19T18:40:21.640Z,69.000000
2022-10-19T18:45:25.267Z,69.272727
2022-10-19T18:50:28.020Z,70.000000
2022-10-19T18:55:19.183Z,70.000000
2022-10-19T19:00:22.000Z,70.000000
2022-10-19T19:05:28.262Z,70.750000
2022-10-19T19:10:28.509Z,71.000000
2022-10-19T19:15:19.436Z,71.416667
2022-10-19T19:20:22.634Z,71.916667
2022-10-19T19:25:25.684Z,70.600000
2022-10-19T19:30:28.980Z,69.333333
2022-10-19T19:35:19.850Z,67.454545
2022-10-19T19:40:23.338Z,66.500000
2022-10-19T19:45:27.974Z,66.923077
2022-10-19T19:50:29.356Z,67.444444
2022-10-19T19:55:20.946Z,67.000000
2022-10-19T20:00:23.500Z,66.300000
2022-10-19T20:05:28.091Z,66.000000
2022-10-19T20:10:29.742Z,66.000000
2022-10-19T20:15:20.746Z,64.727273
2022-10-19T20:20:24.278Z,64.400000
2022-10-19T20:25:28.075Z,65.000000
2022-10-19T20:30:30.740Z,65.800000
2022-10-19T20:35:21.736Z,66.000000
2022-10-19T20:40:25.054Z,66.800000
2022-10-19T20:45:27.834Z,67.000000
2022-10-19T20:50:21.700Z,67.000000
2022-10-19T20:55:21.964Z,67.000000
2022-10-19T21:00:28.292Z,67.000000
2022-10-19T21:05:28.412Z,67.000000
2022-10-19T21:10:19.427Z,67.000000
2022-10-19T21:15:22.277Z,67.200000
2022-10-19T21:20:28.150Z,68.000000
2022-10-19T21:25:29.351Z,67.750000
2022-10-19T21:30:20.091Z,68.000000
2022-10-19T21:35:23.276Z,68.000000
2022-10-19T21:40:28.128Z,68.375000
2022-10-19T21:45:30.799Z,69.250000
2022-10-19T21:50:20.489Z,70.000000
2022-10-19T21:55:23.984Z,70.888889
2022-10-19T22:00:28.035Z,70.875000
2022-10-19T22:05:30.160Z,71.000000
2022-10-19T22:10:20.916Z,71.000000
2022-10-19T22:15:24.130Z,71.000000
2022-10-19T22:20:28.172Z,72.000000
2022-10-19T22:25:30.620Z,72.000000
2022-10-19T22:30:21.485Z,72.000000
2022-10-19T22:35:24.721Z,72.000000
2022-10-19T22:40:27.941Z,72.142857
2022-10-19T22:45:19.130Z,72.000000
2022-10-19T22:50:21.892Z,72.000000
2022-10-19T22:55:28.023Z,72.076923
2022-10-19T23:00:28.344Z,72.200000
2022-10-19T23:05:19.251Z,72.800000
2022-10-19T23:10:22.309Z,73.000000
2022-10-19T23:15:28.222Z,73.272727
2022-10-19T23:20:28.660Z,74.000000
2022-10-19T23:25:19.722Z,74.000000
2022-10-19T23:30:23.012Z,74.000000
2022-10-19T23:35:26.135Z,74.000000
2022-10-19T23:40:29.093Z,74.000000
2022-10-19T23:45:20.406Z,74.000000
2022-10-19T23:50:23.385Z,74.571429
2022-10-19T23:55:28.065Z,74.916667
